Time;durP1;ratioP1;P1;durP2;ratioP2;P2;SDS_P1;SDS_P2;PMS_P1;PMS_P2;Temp;Humidity;BMP_temperature;BMP_pressure;BME280_temperature;BME280_humidity;BME280_pressure;Samples;Min_cycle;Max_cycle;Signal;HPM_P1;HPM_P2
2022/10/07 00:01:57;;;;;;;11.05;4.82;;;;;;;;;;4992386;28;20050;-63
2022/10/07 00:04:24;;;;;;;7.80;4.22;;;;;;;;;;4992276;28;20046;-63
2022/10/07 00:06:51;;;;;;;12.77;6.10;;;;;;;;;;4992457;28;20101;-63
2022/10/07 00:09:18;;;;;;;9.00;4.78;;;;;;;;;;4992172;28;20050;-63
2022/10/07 00:11:44;;;;;;;12.13;5.30;;;;;;;;;;4992385;28;20046;-63
2022/10/07 00:14:11;;;;;;;10.65;4.35;;;;;;;;;;4992183;28;20046;-63
2022/10/07 00:16:40;;;;;;;8.00;3.97;;;;;;;;;;4992132;28;20050;-63
2022/10/07 00:19:10;;;;;;;6.40;3.50;;;;;;;;;;4995220;28;20464;-63
2022/10/07 00:21:37;;;;;;;6.95;3.90;;;;;;;;;;4995315;28;20046;-63
2022/10/07 00:24:05;;;;;;;8.70;4.00;;;;;;;;;;4996137;28;20564;-63
2022/10/07 00:26:33;;;;;;;6.85;3.30;;;;;;;;;;4996301;28;20100;-63
2022/10/07 00:29:01;;;;;;;7.68;3.70;;;;;;;;;;4995711;28;20058;-63
2022/10/07 00:31:30;;;;;;;6.68;3.60;;;;;;;;;;4996244;28;20054;-63
2022/10/07 00:33:57;;;;;;;7.30;3.78;;;;;;;;;;4996066;28;20105;-63
2022/10/07 00:36:29;;;;;;;5.28;3.60;;;;;;;;;;4977732;28;20105;-63
2022/10/07 00:38:58;;;;;;;7.43;3.40;;;;;;;;;;4976632;28;20133;-63
2022/10/07 00:41:28;;;;;;;7.00;3.40;;;;;;;;;;4976498;28;20509;-63
2022/10/07 00:43:54;;;;;;;6.00;4.00;;;;;;;;;;4976755;28;20047;-63
2022/10/07 00:46:31;;;;;;;9.15;3.97;;;;;;;;;;4976440;28;20089;-63
2022/10/07 00:49:01;;;;;;;7.78;3.20;;;;;;;;;;4975294;28;20113;-63
2022/10/07 00:51:28;;;;;;;6.22;3.38;;;;;;;;;;4943669;28;20050;-63
2022/10/07 00:53:55;;;;;;;8.65;3.67;;;;;;;;;;4977446;28;20428;-63
2022/10/07 00:56:22;;;;;;;7.13;3.50;;;;;;;;;;4994654;28;20105;-63
2022/10/07 00:58:49;;;;;;;6.80;3.22;;;;;;;;;;4994455;28;20096;-63
2022/10/07 01:01:17;;;;;;;9.65;3.65;;;;;;;;;;4994557;28;20458;-63
2022/10/07 01:03:44;;;;;;;11.77;4.07;;;;;;;;;;4978508;28;20057;-63
2022/10/07 01:06:11;;;;;;;8.32;3.53;;;;;;;;;;4995467;28;20051;-63
2022/10/07 01:08:38;;;;;;;6.55;3.40;;;;;;;;;;4995351;28;20539;-63
2022/10/07 01:11:12;;;;;;;9.48;3.60;;;;;;;;;;4995580;28;20054;-63
2022/10/07 01:13:46;;;;;;;6.55;3.67;;;;;;;;;;4995520;28;20059;-63
2022/10/07 01:16:22;;;;;;;6.70;3.35;;;;;;;;;;4994346;28;20085;-63
2022/10/07 01:18:56;;;;;;;10.10;4.18;;;;;;;;;;4993937;28;20066;-63
2022/10/07 01:22:04;;;;;;;8.52;3.50;;;;;;;;;;4995372;28;20417;-63
2022/10/07 01:24:40;;;;;;;6.40;3.63;;;;;;;;;;4994476;28;20051;-63
2022/10/07 01:27:17;;;;;;;9.80;3.30;;;;;;;;;;4993925;28;20555;-63
2022/10/07 01:29:55;;;;;;;7.50;3.30;;;;;;;;;;4994842;28;20128;-63
2022/10/07 01:32:31;;;;;;;6.18;3.53;;;;;;;;;;4994999;28;20104;-63
2022/10/07 01:34:58;;;;;;;7.68;3.58;;;;;;;;;;4978594;28;20104;-63
2022/10/07 01:37:27;;;;;;;5.35;3.03;;;;;;;;;;4977538;28;20140;-63
2022/10/07 01:39:55;;;;;;;8.95;3.33;;;;;;;;;;4977957;28;20046;-63
2022/10/07 01:42:24;;;;;;;6.35;3.15;;;;;;;;;;4977662;28;20084;-63
2022/10/07 01:44:53;;;;;;;6.80;3.25;;;;;;;;;;4994908;28;20113;-63
2022/10/07 01:47:19;;;;;;;6.30;2.92;;;;;;;;;;4977701;28;20126;-63
2022/10/07 01:49:46;;;;;;;6.88;3.38;;;;;;;;;;4994613;28;20108;-63
2022/10/07 01:52:44;;;;;;;7.35;2.85;;;;;;;;;;4994298;28;20133;-63
2022/10/07 01:55:32;;;;;;;5.57;2.63;;;;;;;;;;4993829;28;20148;-63
2022/10/07 01:58:20;;;;;;;6.00;2.85;;;;;;;;;;4994648;28;20133;-63
2022/10/07 02:00:53;;;;;;;7.65;2.70;;;;;;;;;;4994438;28;20137;-64
2022/10/07 02:03:44;;;;;;;7.40;2.95;;;;;;;;;;4977729;28;20080;-64
2022/10/07 02:06:13;;;;;;;11.32;3.95;;;;;;;;;;4993578;28;20054;-64
2022/10/07 02:08:50;;;;;;;7.90;3.28;;;;;;;;;;4994228;28;20108;-64
2022/10/07 02:11:26;;;;;;;5.85;2.78;;;;;;;;;;4993364;28;20074;-63
2022/10/07 02:14:00;;;;;;;7.43;2.80;;;;;;;;;;4993336;28;20058;-64
2022/10/07 02:16:36;;;;;;;6.05;2.80;;;;;;;;;;4994442;28;20108;-63
2022/10/07 02:19:09;;;;;;;5.18;3.25;;;;;;;;;;4993221;28;20066;-63
2022/10/07 02:21:36;;;;;;;11.13;3.70;;;;;;;;;;4977872;28;20108;-64
2022/10/07 02:24:03;;;;;;;9.73;2.88;;;;;;;;;;4992877;28;20092;-64
2022/10/07 02:26:29;;;;;;;6.65;2.47;;;;;;;;;;4994076;28;20055;-64
2022/10/07 02:28:56;;;;;;;5.93;2.80;;;;;;;;;;4992778;28;20073;-64
2022/10/07 02:31:25;;;;;;;8.80;2.70;;;;;;;;;;4992573;28;20456;-64
2022/10/07 02:33:52;;;;;;;6.72;2.20;;;;;;;;;;4976789;28;20082;-64
2022/10/07 02:36:23;;;;;;;7.03;2.58;;;;;;;;;;4976738;28;20061;-64
2022/10/07 02:38:50;;;;;;;8.57;2.70;;;;;;;;;;4992832;28;20474;-64
2022/10/07 02:41:30;;;;;;;3.50;2.53;;;;;;;;;;4993444;28;20129;-64
2022/10/07 02:44:16;;;;;;;5.72;3.35;;;;;;;;;;4992754;28;20560;-64
2022/10/07 02:47:09;;;;;;;5.85;2.58;;;;;;;;;;4992961;28;20050;-64
2022/10/07 02:49:38;;;;;;;5.23;2.47;;;;;;;;;;4975416;28;20092;-64
2022/10/07 02:52:06;;;;;;;7.13;2.75;;;;;;;;;;4983446;28;20074;-64
2022/10/07 02:54:36;;;;;;;5.55;2.40;;;;;;;;;;4972857;28;20137;-64
2022/10/07 02:57:03;;;;;;;4.90;2.30;;;;;;;;;;4957027;28;20097;-64
2022/10/07 02:59:29;;;;;;;9.40;3.05;;;;;;;;;;4974007;28;20097;-61
2022/10/07 03:01:57;;;;;;;6.72;2.95;;;;;;;;;;4961807;28;20073;-62
2022/10/07 03:04:24;;;;;;;6.00;3.03;;;;;;;;;;4992139;28;20073;-62
2022/10/07 03:06:51;;;;;;;10.00;3.35;;;;;;;;;;4993509;28;20073;-62
2022/10/07 03:09:17;;;;;;;10.73;3.20;;;;;;;;;;4991981;28;20483;-62
2022/10/07 03:11:44;;;;;;;6.28;2.60;;;;;;;;;;4993479;28;20081;-61
2022/10/07 03:14:11;;;;;;;5.72;3.00;;;;;;;;;;4993456;28;20058;-61
2022/10/07 03:16:37;;;;;;;8.00;2.25;;;;;;;;;;4993195;28;20567;-62
2022/10/07 03:19:04;;;;;;;7.15;2.78;;;;;;;;;;4993059;28;20353;-62
2022/10/07 03:21:33;;;;;;;5.03;2.60;;;;;;;;;;4993103;28;20050;-62
2022/10/07 03:24:03;;;;;;;7.68;2.60;;;;;;;;;;5027745;22;20482;-66
2022/10/07 03:26:34;;;;;;;6.93;2.30;;;;;;;;;;5006965;28;20046;-68
2022/10/07 03:29:01;;;;;;;7.95;2.83;;;;;;;;;;4992177;28;20489;-66
2022/10/07 03:31:28;;;;;;;5.13;2.50;;;;;;;;;;5002074;28;20097;-66
2022/10/07 03:33:55;;;;;;;8.43;2.60;;;;;;;;;;5013064;28;20061;-66
2022/10/07 03:36:23;;;;;;;5.07;2.42;;;;;;;;;;5013501;28;20050;-66
2022/10/07 03:38:50;;;;;;;5.95;2.25;;;;;;;;;;5011643;28;20053;-66
2022/10/07 03:41:18;;;;;;;5.63;3.05;;;;;;;;;;5012233;28;20053;-66
2022/10/07 03:43:45;;;;;;;6.82;2.13;;;;;;;;;;5013372;28;20054;-66
2022/10/07 03:46:12;;;;;;;7.10;2.30;;;;;;;;;;5013476;28;20050;-66
2022/10/07 03:48:40;;;;;;;6.70;2.80;;;;;;;;;;5011315;28;20053;-66
2022/10/07 03:51:07;;;;;;;7.50;2.70;;;;;;;;;;5012646;28;20060;-66
2022/10/07 03:53:37;;;;;;;5.68;2.65;;;;;;;;;;5009917;28;20076;-66
2022/10/07 03:56:04;;;;;;;5.70;2.75;;;;;;;;;;5011787;28;20053;-67
2022/10/07 03:58:31;;;;;;;3.65;2.40;;;;;;;;;;5013239;28;20046;-66
2022/10/07 04:01:05;;;;;;;10.07;2.80;;;;;;;;;;5012851;28;20550;-66
2022/10/07 04:03:32;;;;;;;8.25;2.85;;;;;;;;;;5012874;28;20120;-66
2022/10/07 04:06:00;;;;;;;6.07;2.85;;;;;;;;;;5013052;28;20050;-66
2022/10/07 04:08:28;;;;;;;7.57;2.30;;;;;;;;;;5009040;28;20053;-66
2022/10/07 04:10:56;;;;;;;9.68;2.58;;;;;;;;;;5008317;28;20583;-67
2022/10/07 04:13:23;;;;;;;9.63;2.38;;;;;;;;;;4993687;28;20108;-67
2022/10/07 04:15:50;;;;;;;4.53;2.20;;;;;;;;;;4993802;28;20058;-66
2022/10/07 04:18:18;;;;;;;8.15;2.83;;;;;;;;;;4993899;28;20460;-67
2022/10/07 04:20:45;;;;;;;6.20;2.60;;;;;;;;;;4993510;28;20158;-66
2022/10/07 04:23:13;;;;;;;6.10;2.47;;;;;;;;;;4993379;28;20050;-67
2022/10/07 04:25:44;;;;;;;7.82;2.80;;;;;;;;;;4992495;28;20050;-66
2022/10/07 04:28:18;;;;;;;9.02;2.83;;;;;;;;;;4991988;28;20417;-66
2022/10/07 04:30:52;;;;;;;5.45;2.45;;;;;;;;;;4993903;28;20085;-66
2022/10/07 04:33:22;;;;;;;7.10;2.83;;;;;;;;;;4991936;28;20490;-66
2022/10/07 04:35:53;;;;;;;7.00;2.85;;;;;;;;;;4993330;28;20050;-66
2022/10/07 04:38:20;;;;;;;6.28;3.05;;;;;;;;;;4991618;28;20508;-67
2022/10/07 04:40:53;;;;;;;10.43;2.92;;;;;;;;;;4993070;28;20054;-66
2022/10/07 04:43:26;;;;;;;6.18;2.95;;;;;;;;;;4991929;28;20092;-66
2022/10/07 04:45:54;;;;;;;7.35;3.45;;;;;;;;;;4992796;28;20054;-66
2022/10/07 04:48:22;;;;;;;6.55;2.95;;;;;;;;;;4998471;28;20541;-66
2022/10/07 04:50:52;;;;;;;6.32;3.17;;;;;;;;;;5011035;28;20428;-66
2022/10/07 04:53:19;;;;;;;7.95;3.28;;;;;;;;;;5011983;28;20132;-66
2022/10/07 04:55:48;;;;;;;5.75;3.00;;;;;;;;;;5012267;28;20078;-66
2022/10/07 04:58:16;;;;;;;6.97;2.85;;;;;;;;;;5011722;28;20056;-66
2022/10/07 05:00:47;;;;;;;9.05;3.65;;;;;;;;;;5011940;28;20078;-65
2022/10/07 05:03:21;;;;;;;9.38;3.33;;;;;;;;;;5011936;28;20054;-67
2022/10/07 05:05:52;;;;;;;8.50;3.25;;;;;;;;;;5015338;28;20069;-66
2022/10/07 05:08:20;;;;;;;7.65;3.60;;;;;;;;;;5015354;28;20559;-66
2022/10/07 05:10:47;;;;;;;7.65;3.45;;;;;;;;;;5007118;28;20053;-66
2022/10/07 05:13:15;;;;;;;5.55;3.30;;;;;;;;;;5002948;28;20073;-66
2022/10/07 05:15:48;;;;;;;8.50;3.42;;;;;;;;;;4998374;28;20054;-66
2022/10/07 05:18:17;;;;;;;7.50;3.85;;;;;;;;;;5005845;28;20076;-66
2022/10/07 05:20:46;;;;;;;7.43;3.60;;;;;;;;;;5003739;28;20061;-66
2022/10/07 05:23:17;;;;;;;8.65;3.70;;;;;;;;;;4995503;28;20054;-66
2022/10/07 05:25:44;;;;;;;8.02;3.88;;;;;;;;;;4995612;28;20054;-66
2022/10/07 05:28:12;;;;;;;7.30;3.40;;;;;;;;;;5000116;28;20416;-67
2022/10/07 05:30:40;;;;;;;9.65;3.83;;;;;;;;;;5015224;28;20129;-66
2022/10/07 05:33:08;;;;;;;7.07;3.53;;;;;;;;;;5014526;28;20066;-66
2022/10/07 05:35:35;;;;;;;7.35;3.33;;;;;;;;;;5014911;28;20093;-66
2022/10/07 05:38:01;;;;;;;9.20;3.60;;;;;;;;;;5014326;28;20086;-66
2022/10/07 05:40:28;;;;;;;6.93;3.65;;;;;;;;;;5014645;28;20463;-66
2022/10/07 05:42:54;;;;;;;6.05;3.63;;;;;;;;;;5012468;28;20076;-65
2022/10/07 05:45:21;;;;;;;7.45;3.75;;;;;;;;;;5012503;28;20115;-66
2022/10/07 05:47:48;;;;;;;6.55;3.35;;;;;;;;;;5012195;28;20137;-66
2022/10/07 05:50:14;;;;;;;6.38;3.40;;;;;;;;;;5012056;28;20085;-66
2022/10/07 05:52:44;;;;;;;6.25;3.90;;;;;;;;;;5012345;28;20100;-65
2022/10/07 05:55:10;;;;;;;7.40;3.25;;;;;;;;;;5011887;28;20447;-65
2022/10/07 05:57:38;;;;;;;8.88;4.03;;;;;;;;;;5012244;28;20501;-65
2022/10/07 06:00:06;;;;;;;11.90;4.32;;;;;;;;;;5011268;28;20045;-64
2022/10/07 06:02:33;;;;;;;7.45;3.97;;;;;;;;;;5012021;28;20104;-65
2022/10/07 06:05:00;;;;;;;7.70;3.63;;;;;;;;;;5012021;28;20054;-66
2022/10/07 06:07:27;;;;;;;9.13;3.63;;;;;;;;;;5012348;28;20053;-65
2022/10/07 06:15:25;;;;;;;9.57;3.75;;;;;;;;;;5011228;28;20077;-65
2022/10/07 06:17:52;;;;;;;5.72;3.45;;;;;;;;;;5011703;28;20493;-65
2022/10/07 06:20:18;;;;;;;9.13;4.40;;;;;;;;;;5011650;28;20050;-65
2022/10/07 06:22:45;;;;;;;9.70;3.83;;;;;;;;;;5011163;28;20050;-65
2022/10/07 06:25:11;;;;;;;7.68;3.83;;;;;;;;;;5011984;28;20104;-65
2022/10/07 06:27:38;;;;;;;12.00;4.70;;;;;;;;;;5011990;28;20457;-66
2022/10/07 06:30:06;;;;;;;11.10;3.90;;;;;;;;;;5011571;28;20492;-66
2022/10/07 06:32:33;;;;;;;9.05;4.05;;;;;;;;;;5011741;28;20112;-66
2022/10/07 06:34:59;;;;;;;9.75;4.28;;;;;;;;;;5011041;28;20081;-71
2022/10/07 06:37:29;;;;;;;5.53;4.00;;;;;;;;;;5009959;28;20136;-66
2022/10/07 06:39:56;;;;;;;7.72;4.40;;;;;;;;;;5011460;28;20136;-66
2022/10/07 06:42:25;;;;;;;8.90;4.05;;;;;;;;;;5011557;28;20417;-67
2022/10/07 06:44:52;;;;;;;10.15;4.93;;;;;;;;;;5011660;28;20049;-66
2022/10/07 06:47:20;;;;;;;5.93;3.72;;;;;;;;;;5011298;28;20056;-66
2022/10/07 06:49:46;;;;;;;6.57;3.92;;;;;;;;;;5010903;28;20084;-66
2022/10/07 06:52:13;;;;;;;24.65;5.22;;;;;;;;;;5011245;28;20092;-67
2022/10/07 06:54:40;;;;;;;6.93;3.65;;;;;;;;;;4994535;28;20144;-71
2022/10/07 06:57:07;;;;;;;7.60;4.43;;;;;;;;;;5004183;28;20041;-69
2022/10/07 06:59:54;;;;;;;13.23;3.90;;;;;;;;;;4997927;28;20054;-67
2022/10/07 07:02:21;;;;;;;8.23;3.83;;;;;;;;;;5001196;28;20100;-69
2022/10/07 07:04:48;;;;;;;13.43;4.53;;;;;;;;;;5009804;28;20057;-75
2022/10/07 07:07:23;;;;;;;9.32;3.67;;;;;;;;;;4992528;28;20057;-74
2022/10/07 07:09:50;;;;;;;10.77;5.05;;;;;;;;;;5005827;28;20316;-73
2022/10/07 07:12:17;;;;;;;6.85;4.10;;;;;;;;;;4998181;28;20105;-72
2022/10/07 07:14:44;;;;;;;9.88;3.92;;;;;;;;;;5005819;28;20558;-73
2022/10/07 07:17:11;;;;;;;12.20;4.20;;;;;;;;;;4997347;28;20120;-73
2022/10/07 07:19:37;;;;;;;9.50;4.43;;;;;;;;;;5004828;28;20042;-73
2022/10/07 07:22:04;;;;;;;19.52;5.13;;;;;;;;;;5011451;28;20166;-69
2022/10/07 07:24:31;;;;;;;7.82;4.07;;;;;;;;;;5012369;28;20046;-70
2022/10/07 07:26:58;;;;;;;10.85;4.18;;;;;;;;;;5012522;28;20092;-69
2022/10/07 07:29:25;;;;;;;8.98;4.30;;;;;;;;;;5012177;28;20493;-68
2022/10/07 07:31:52;;;;;;;6.72;3.85;;;;;;;;;;5012048;28;20575;-66
2022/10/07 07:34:19;;;;;;;9.23;3.97;;;;;;;;;;5012406;28;20049;-68
2022/10/07 07:36:47;;;;;;;10.02;3.70;;;;;;;;;;5012577;28;20050;-68
2022/10/07 07:39:16;;;;;;;6.35;4.00;;;;;;;;;;5012212;28;20045;-68
2022/10/07 07:41:45;;;;;;;10.45;3.55;;;;;;;;;;5011196;28;20077;-69
2022/10/07 07:44:14;;;;;;;8.70;3.97;;;;;;;;;;5011677;28;20050;-66
2022/10/07 07:46:47;;;;;;;8.25;3.97;;;;;;;;;;5012421;28;20104;-68
2022/10/07 07:49:14;;;;;;;7.03;3.80;;;;;;;;;;5012131;28;20081;-70
2022/10/07 07:51:41;;;;;;;10.43;3.78;;;;;;;;;;5012316;28;20054;-71
2022/10/07 07:54:09;;;;;;;10.57;4.30;;;;;;;;;;5012056;28;20111;-67
2022/10/07 07:56:36;;;;;;;5.80;3.25;;;;;;;;;;5011683;28;20543;-67
2022/10/07 07:59:03;;;;;;;9.90;3.60;;;;;;;;;;5011866;28;20127;-66
2022/10/07 08:01:34;;;;;;;7.00;3.80;;;;;;;;;;5011890;28;20497;-67
2022/10/07 08:04:01;;;;;;;6.35;3.55;;;;;;;;;;5011878;28;20100;-67
2022/10/07 08:06:30;;;;;;;9.73;4.03;;;;;;;;;;5011309;28;20076;-68
2022/10/07 08:08:57;;;;;;;10.40;4.63;;;;;;;;;;5018093;28;20053;-66
2022/10/07 08:11:23;;;;;;;5.97;3.70;;;;;;;;;;5027416;28;20054;-66
2022/10/07 08:13:50;;;;;;;11.30;3.78;;;;;;;;;;5029657;28;20053;-66
2022/10/07 08:16:19;;;;;;;6.30;4.25;;;;;;;;;;5029924;28;20057;-66
2022/10/07 08:18:47;;;;;;;5.38;3.70;;;;;;;;;;5028200;28;20430;-66
2022/10/07 08:21:17;;;;;;;10.20;4.13;;;;;;;;;;5024121;28;20128;-66
2022/10/07 08:23:44;;;;;;;5.68;3.42;;;;;;;;;;5027191;28;20068;-67
2022/10/07 08:26:10;;;;;;;6.80;3.65;;;;;;;;;;5026279;28;20046;-67
2022/10/07 08:28:39;;;;;;;8.57;3.80;;;;;;;;;;5025037;28;20042;-67
2022/10/07 08:31:09;;;;;;;10.55;3.58;;;;;;;;;;5020373;28;20540;-68
2022/10/07 08:33:38;;;;;;;7.25;3.20;;;;;;;;;;5010836;28;20064;-68
2022/10/07 08:36:06;;;;;;;5.18;2.67;;;;;;;;;;5011953;28;20104;-68
2022/10/07 08:38:35;;;;;;;4.60;3.13;;;;;;;;;;5012101;28;20148;-68
2022/10/07 08:41:08;;;;;;;6.68;2.92;;;;;;;;;;5014984;28;20046;-68
2022/10/07 08:43:36;;;;;;;5.75;3.10;;;;;;;;;;5015680;28;20050;-68
2022/10/07 08:46:03;;;;;;;7.00;2.90;;;;;;;;;;5014406;28;20104;-67
2022/10/07 08:48:32;;;;;;;6.15;3.30;;;;;;;;;;5014090;28;20056;-65
2022/10/07 08:51:19;;;;;;;5.57;3.58;;;;;;;;;;4998050;28;20057;-68
2022/10/07 08:53:52;;;;;;;5.93;3.42;;;;;;;;;;5014192;28;20050;-67
2022/10/07 08:56:22;;;;;;;6.13;2.92;;;;;;;;;;5014319;28;20124;-68
2022/10/07 08:59:10;;;;;;;6.10;2.80;;;;;;;;;;5014026;28;20092;-68
2022/10/07 09:01:50;;;;;;;4.13;2.50;;;;;;;;;;5014117;28;20046;-67
2022/10/07 09:04:22;;;;;;;5.53;3.28;;;;;;;;;;5014071;28;20073;-67
2022/10/07 09:07:07;;;;;;;5.90;2.90;;;;;;;;;;5014260;28;20455;-68
2022/10/07 09:09:41;;;;;;;5.55;3.33;;;;;;;;;;5014881;28;20041;-68
2022/10/07 09:12:15;;;;;;;6.20;3.08;;;;;;;;;;5014195;28;20049;-67
2022/10/07 09:14:43;;;;;;;5.03;2.80;;;;;;;;;;5013602;28;20045;-67
2022/10/07 09:17:37;;;;;;;3.28;2.22;;;;;;;;;;5013980;28;20084;-68
2022/10/07 09:20:26;;;;;;;7.38;2.90;;;;;;;;;;5013188;28;20129;-66
2022/10/07 09:22:56;;;;;;;6.50;2.55;;;;;;;;;;5039371;22;20050;-65
2022/10/07 09:25:25;;;;;;;6.20;2.45;;;;;;;;;;5036112;28;20453;-65
2022/10/07 09:27:53;;;;;;;7.32;2.58;;;;;;;;;;5054666;28;20053;-63
2022/10/07 09:30:21;;;;;;;7.93;2.92;;;;;;;;;;5054805;28;20055;-65
2022/10/07 09:32:53;;;;;;;7.07;2.92;;;;;;;;;;5053462;28;20049;-65
2022/10/07 09:35:21;;;;;;;4.70;2.85;;;;;;;;;;5053519;28;20045;-64
2022/10/07 09:38:08;;;;;;;6.63;2.80;;;;;;;;;;5054418;28;20071;-65
2022/10/07 09:43:31;;;;;;;5.77;2.60;;;;;;;;;;5053765;28;20053;-65
2022/10/07 09:45:59;;;;;;;6.78;3.05;;;;;;;;;;5054408;28;20104;-64
2022/10/07 09:48:27;;;;;;;5.45;3.03;;;;;;;;;;5053150;28;20426;-63
2022/10/07 09:51:15;;;;;;;9.35;3.80;;;;;;;;;;5051828;28;20516;-64
2022/10/07 09:54:18;;;;;;;5.35;2.97;;;;;;;;;;5054570;28;20102;-65
2022/10/07 09:56:45;;;;;;;3.95;3.05;;;;;;;;;;5065650;28;20127;-64
2022/10/07 09:59:22;;;;;;;4.72;2.80;;;;;;;;;;5055433;28;20084;-65
2022/10/07 10:01:54;;;;;;;7.32;3.75;;;;;;;;;;5054712;28;20045;-65
2022/10/07 10:04:32;;;;;;;4.88;3.20;;;;;;;;;;5053723;28;20055;-65
2022/10/07 10:07:17;;;;;;;6.72;3.33;;;;;;;;;;5053302;28;20048;-65
2022/10/07 10:09:51;;;;;;;6.88;3.65;;;;;;;;;;5038646;28;20045;-65
2022/10/07 10:12:19;;;;;;;9.88;4.05;;;;;;;;;;5054189;28;20144;-64
2022/10/07 10:14:54;;;;;;;7.07;4.15;;;;;;;;;;5053120;28;20071;-65
2022/10/07 10:17:27;;;;;;;7.47;3.85;;;;;;;;;;5054712;28;20171;-65
2022/10/07 10:19:55;;;;;;;6.13;3.90;;;;;;;;;;5053359;28;20109;-66
2022/10/07 10:22:26;;;;;;;6.72;3.50;;;;;;;;;;5054739;28;20163;-65
2022/10/07 10:28:09;;;;;;;8.60;3.95;;;;;;;;;;5074153;28;20053;-65
2022/10/07 10:30:39;;;;;;;8.32;3.80;;;;;;;;;;5069477;28;20079;-64
2022/10/07 10:33:23;;;;;;;8.63;4.32;;;;;;;;;;5074295;28;20053;-65
2022/10/07 10:36:19;;;;;;;7.03;4.10;;;;;;;;;;5057827;28;20060;-63
2022/10/07 10:39:00;;;;;;;9.00;3.90;;;;;;;;;;5074264;28;20037;-64
2022/10/07 10:41:39;;;;;;;6.30;4.40;;;;;;;;;;5059402;28;20075;-65
2022/10/07 10:44:29;;;;;;;10.13;4.32;;;;;;;;;;5072926;28;20045;-64
2022/10/07 10:47:24;;;;;;;6.57;4.30;;;;;;;;;;5076175;28;20045;-62
2022/10/07 10:49:53;;;;;;;8.77;4.10;;;;;;;;;;5068782;28;20045;-64
2022/10/07 10:52:35;;;;;;;6.13;4.40;;;;;;;;;;5073589;28;20053;-64
2022/10/07 10:55:22;;;;;;;8.98;5.10;;;;;;;;;;5073107;28;20053;-65
2022/10/07 10:57:57;;;;;;;6.32;4.10;;;;;;;;;;5073269;28;20044;-62
2022/10/07 11:00:31;;;;;;;10.07;4.15;;;;;;;;;;5071091;28;20045;-64
2022/10/07 11:03:04;;;;;;;8.80;4.70;;;;;;;;;;5037490;28;20057;-65
2022/10/07 11:05:35;;;;;;;7.80;4.10;;;;;;;;;;5053076;28;20052;-65
2022/10/07 11:08:21;;;;;;;6.50;4.07;;;;;;;;;;5052290;28;20088;-63
2022/10/07 11:10:59;;;;;;;6.53;5.22;;;;;;;;;;5052837;28;20052;-64
2022/10/07 11:13:33;;;;;;;7.10;4.65;;;;;;;;;;5051994;28;20052;-66
2022/10/07 11:16:18;;;;;;;8.70;4.32;;;;;;;;;;5052276;28;20110;-65
2022/10/07 11:19:42;;;;;;;5.70;4.13;;;;;;;;;;5044213;28;20060;-66
2022/10/07 11:22:12;;;;;;;5.75;4.03;;;;;;;;;;5036453;28;20098;-64
2022/10/07 11:24:49;;;;;;;6.18;4.53;;;;;;;;;;5034579;28;20048;-63
2022/10/07 11:27:21;;;;;;;7.47;4.22;;;;;;;;;;5045423;28;20178;-63
2022/10/07 11:30:12;;;;;;;4.77;3.40;;;;;;;;;;5051880;28;20187;-64
2022/10/07 11:32:44;;;;;;;6.90;3.35;;;;;;;;;;5051912;28;20569;-64
2022/10/07 11:35:34;;;;;;;7.18;4.28;;;;;;;;;;5052579;28;20103;-64
2022/10/07 11:38:13;;;;;;;8.15;4.07;;;;;;;;;;5051235;28;20088;-63
2022/10/07 11:41:03;;;;;;;3.95;3.13;;;;;;;;;;5052524;28;20053;-64
2022/10/07 11:43:45;;;;;;;9.90;4.20;;;;;;;;;;5052105;28;20053;-63
2022/10/07 11:46:27;;;;;;;7.18;3.58;;;;;;;;;;5051416;28;20048;-63
2022/10/07 11:49:05;;;;;;;14.40;5.00;;;;;;;;;;5051602;28;20049;-64
2022/10/07 11:51:36;;;;;;;10.05;4.13;;;;;;;;;;5052186;28;20049;-64
2022/10/07 11:54:05;;;;;;;7.85;4.53;;;;;;;;;;5051045;28;20099;-64
2022/10/07 11:56:37;;;;;;;6.70;4.28;;;;;;;;;;5051253;28;20110;-65
2022/10/07 11:59:05;;;;;;;7.32;4.15;;;;;;;;;;5052030;28;20048;-65
2022/10/07 12:01:39;;;;;;;7.60;4.35;;;;;;;;;;5052209;28;20095;-65
2022/10/07 12:04:14;;;;;;;6.10;3.80;;;;;;;;;;5051388;28;20131;-64
2022/10/07 12:07:18;;;;;;;7.47;4.53;;;;;;;;;;5051950;28;20069;-64
2022/10/07 12:10:03;;;;;;;5.90;3.80;;;;;;;;;;5051909;28;20052;-63
2022/10/07 12:12:45;;;;;;;5.75;3.80;;;;;;;;;;5052188;28;20120;-64
2022/10/07 12:15:30;;;;;;;8.90;3.90;;;;;;;;;;5051403;28;20423;-64
2022/10/07 12:18:05;;;;;;;5.75;3.60;;;;;;;;;;5050625;28;20048;-63
2022/10/07 12:20:33;;;;;;;6.53;3.85;;;;;;;;;;5051719;28;20045;-63
2022/10/07 12:23:24;;;;;;;6.32;3.47;;;;;;;;;;5051612;28;20144;-63
2022/10/07 12:25:58;;;;;;;5.72;3.92;;;;;;;;;;5051281;28;20056;-65
2022/10/07 12:28:28;;;;;;;4.97;3.42;;;;;;;;;;5050618;28;20124;-64
2022/10/07 12:30:56;;;;;;;4.78;3.28;;;;;;;;;;5051748;28;20411;-64
2022/10/07 12:33:45;;;;;;;5.38;3.67;;;;;;;;;;5051549;28;20499;-65
2022/10/07 12:36:17;;;;;;;6.78;3.72;;;;;;;;;;5051981;28;20077;-64
2022/10/07 12:38:44;;;;;;;;;;;;;;;;;;5051999;28;20468;-65
2022/10/07 12:41:31;;;;;;;4.88;3.22;;;;;;;;;;5051447;28;19920;-65
2022/10/07 12:44:22;;;;;;;4.85;3.47;;;;;;;;;;5050352;28;20056;-64
2022/10/07 12:46:59;;;;;;;4.43;3.13;;;;;;;;;;5050604;28;20091;-64
2022/10/07 12:49:35;;;;;;;6.45;3.97;;;;;;;;;;5034353;28;20565;-65
2022/10/07 12:52:13;;;;;;;3.67;3.25;;;;;;;;;;5050460;28;20060;-64
2022/10/07 12:54:53;;;;;;;4.57;3.40;;;;;;;;;;5033653;28;20091;-65
2022/10/07 12:57:24;;;;;;;4.07;3.67;;;;;;;;;;5050459;28;20136;-65
2022/10/07 13:00:11;;;;;;;5.60;3.40;;;;;;;;;;5034027;28;20458;-65
2022/10/07 13:03:15;;;;;;;4.13;3.25;;;;;;;;;;5051411;28;20488;-64
2022/10/07 13:06:10;;;;;;;5.07;3.50;;;;;;;;;;5052369;28;20123;-65
2022/10/07 13:08:42;;;;;;;4.13;3.25;;;;;;;;;;5051354;28;20096;-66
2022/10/07 13:11:33;;;;;;;5.40;3.40;;;;;;;;;;5051675;28;20087;-65
2022/10/07 13:14:36;;;;;;;5.97;3.50;;;;;;;;;;5050593;28;20083;-66
2022/10/07 13:17:28;;;;;;;4.53;3.67;;;;;;;;;;5050393;28;20045;-65
2022/10/07 13:20:23;;;;;;;5.50;3.78;;;;;;;;;;5034336;28;20048;-65
2022/10/07 13:22:50;;;;;;;7.43;3.50;;;;;;;;;;5051311;28;20091;-65
2022/10/07 13:25:18;;;;;;;5.90;3.60;;;;;;;;;;5051672;28;20499;-66
2022/10/07 13:27:56;;;;;;;6.57;3.40;;;;;;;;;;5053756;28;20122;-66
2022/10/07 13:30:50;;;;;;;4.72;3.17;;;;;;;;;;5053571;28;20044;-65
2022/10/07 13:33:24;;;;;;;6.75;3.15;;;;;;;;;;5054822;28;20055;-66
2022/10/07 13:35:51;;;;;;;4.15;3.67;;;;;;;;;;5054686;28;20049;-65
2022/10/07 13:38:22;;;;;;;4.18;3.63;;;;;;;;;;5036683;28;20049;-65
2022/10/07 13:41:00;;;;;;;6.00;3.47;;;;;;;;;;5054443;28;20084;-65
2022/10/07 13:43:28;;;;;;;4.85;3.35;;;;;;;;;;5054616;28;20198;-66
2022/10/07 13:45:55;;;;;;;4.85;3.83;;;;;;;;;;5053316;28;20460;-65
2022/10/07 13:48:26;;;;;;;6.53;3.63;;;;;;;;;;5036606;28;20053;-65
2022/10/07 13:50:54;;;;;;;4.97;3.70;;;;;;;;;;5053054;28;20076;-65
2022/10/07 13:53:29;;;;;;;5.13;3.50;;;;;;;;;;5036944;28;20131;-66
2022/10/07 13:56:23;;;;;;;4.70;3.08;;;;;;;;;;5054469;28;20045;-65
2022/10/07 13:58:53;;;;;;;4.70;3.13;;;;;;;;;;5053132;28;20343;-65
2022/10/07 14:01:30;;;;;;;4.10;3.55;;;;;;;;;;5056623;28;20049;-64
2022/10/07 14:04:17;;;;;;;3.90;3.20;;;;;;;;;;5057131;28;20053;-64
2022/10/07 14:06:52;;;;;;;4.40;3.40;;;;;;;;;;5054015;28;20045;-64
2022/10/07 14:09:23;;;;;;;5.25;3.75;;;;;;;;;;5054131;28;20161;-65
2022/10/07 14:11:56;;;;;;;5.38;3.00;;;;;;;;;;5053995;28;20594;-65
2022/10/07 14:14:30;;;;;;;4.25;2.78;;;;;;;;;;5052404;28;20081;-64
2022/10/07 14:17:00;;;;;;;3.70;3.20;;;;;;;;;;5054132;28;20128;-65
2022/10/07 14:19:30;;;;;;;6.45;3.47;;;;;;;;;;5053653;28;20060;-63
2022/10/07 14:22:00;;;;;;;6.80;3.90;;;;;;;;;;5053728;28;20045;-64
2022/10/07 14:24:27;;;;;;;4.97;3.60;;;;;;;;;;5052251;28;20095;-64
2022/10/07 14:26:53;;;;;;;5.25;3.67;;;;;;;;;;5052641;28;20139;-65
2022/10/07 14:29:28;;;;;;;8.93;4.32;;;;;;;;;;5052174;28;20397;-65
2022/10/07 14:37:39;;;;;;;5.18;3.15;;;;;;;;;;5052785;28;20053;-65
2022/10/07 14:40:19;;;;;;;4.45;3.90;;;;;;;;;;5053074;28;20076;-65
2022/10/07 14:42:46;;;;;;;5.38;3.40;;;;;;;;;;5053623;28;20095;-65
2022/10/07 14:45:16;;;;;;;6.38;3.85;;;;;;;;;;5053128;28;20056;-64
2022/10/07 14:47:44;;;;;;;4.90;3.63;;;;;;;;;;5053423;28;20057;-64
2022/10/07 14:50:12;;;;;;;5.30;3.40;;;;;;;;;;5053165;28;20088;-65
2022/10/07 14:52:45;;;;;;;4.03;3.33;;;;;;;;;;5053319;28;20091;-64
2022/10/07 14:55:21;;;;;;;4.47;3.25;;;;;;;;;;5035782;28;20400;-66
2022/10/07 14:57:48;;;;;;;5.43;3.80;;;;;;;;;;5052966;28;20102;-65
2022/10/07 15:00:18;;;;;;;4.32;3.40;;;;;;;;;;5052054;28;20102;-65
2022/10/07 15:02:45;;;;;;;5.05;3.50;;;;;;;;;;5053122;28;20053;-66
2022/10/07 15:05:12;;;;;;;5.63;4.05;;;;;;;;;;5053338;28;20056;-65
2022/10/07 15:07:41;;;;;;;4.90;3.75;;;;;;;;;;5052951;28;20542;-66
2022/10/07 15:10:20;;;;;;;7.55;4.00;;;;;;;;;;5052654;28;20045;-66
2022/10/07 15:12:47;;;;;;;6.03;4.10;;;;;;;;;;5053097;28;20193;-65
2022/10/07 15:15:14;;;;;;;4.32;3.92;;;;;;;;;;5052879;28;20466;-65
2022/10/07 15:17:41;;;;;;;5.53;3.55;;;;;;;;;;5051432;28;20577;-65
2022/10/07 15:20:10;;;;;;;6.90;3.55;;;;;;;;;;5052446;28;20116;-64
2022/10/07 15:22:37;;;;;;;7.18;4.45;;;;;;;;;;5052487;28;20091;-65
2022/10/07 15:25:05;;;;;;;6.32;4.47;;;;;;;;;;5052770;28;20045;-64
2022/10/07 15:27:32;;;;;;;8.20;4.43;;;;;;;;;;5052411;28;20139;-63
2022/10/07 15:29:59;;;;;;;5.90;4.18;;;;;;;;;;5052212;28;20088;-63
2022/10/07 15:32:29;;;;;;;6.78;4.40;;;;;;;;;;5052813;28;20045;-63